createdAt,value
2018-02-04T00:02:20.379Z,57.30
2018-02-04T00:04:48.118Z,56.80
2018-02-04T00:07:16.166Z,56.90
2018-02-04T00:09:44.396Z,57.50
2018-02-04T00:12:12.366Z,56.30
2018-02-04T00:14:40.885Z,56.80
2018-02-04T00:17:08.678Z,56.60
2018-02-04T00:19:37.263Z,56.80
2018-02-04T00:22:04.962Z,57.20
2018-02-04T00:24:32.975Z,56.70
2018-02-04T00:27:01.598Z,56.50
2018-02-04T00:29:30.171Z,56.30
2018-02-04T00:31:58.561Z,56.30
2018-02-04T00:34:27.141Z,56.00
2018-02-04T00:36:56.305Z,56.00
2018-02-04T00:39:24.185Z,56.00
2018-02-04T00:41:52.204Z,56.60
2018-02-04T00:44:20.016Z,56.50
2018-02-04T00:47:06.062Z,56.00
2018-02-04T00:49:35.612Z,55.20
2018-02-04T00:52:03.412Z,55.20
2018-02-04T00:54:31.174Z,55.50
2018-02-04T00:56:59.649Z,56.20
2018-02-04T00:59:27.791Z,56.20
2018-02-04T01:01:55.491Z,55.80
2018-02-04T01:04:23.441Z,55.90
2018-02-04T01:06:51.593Z,55.90
2018-02-04T01:09:20.139Z,56.50
2018-02-04T01:11:48.052Z,56.70
2018-02-04T01:14:16.012Z,56.60
2018-02-04T01:16:44.328Z,56.60
2018-02-04T01:19:13.585Z,57.40
2018-02-04T01:21:41.723Z,57.40
2018-02-04T01:24:09.471Z,58.00
2018-02-04T01:26:37.280Z,58.30
2018-02-04T01:29:05.046Z,58.10
2018-02-04T01:31:32.806Z,58.20
2018-02-04T01:34:00.852Z,58.10
2018-02-04T01:36:29.466Z,58.10
2018-02-04T01:38:57.251Z,58.00
2018-02-04T01:41:25.197Z,58.50
2018-02-04T01:43:53.579Z,58.40
2018-02-04T01:46:22.062Z,57.90
2018-02-04T01:48:50.596Z,58.00
2018-02-04T01:51:18.637Z,58.30
2018-02-04T01:53:47.062Z,58.60
2018-02-04T01:56:14.916Z,58.50
2018-02-04T01:58:47.692Z,57.70
2018-02-04T02:01:21.892Z,57.50
2018-02-04T02:03:50.423Z,57.50
2018-02-04T02:06:18.358Z,57.40
2018-02-04T02:08:47.591Z,57.20
2018-02-04T02:11:15.364Z,57.20
2018-02-04T02:13:44.137Z,57.10
2018-02-04T02:16:12.005Z,57.10
2018-02-04T02:18:40.050Z,57.10
2018-02-04T02:21:08.562Z,56.90
2018-02-04T02:23:37.654Z,56.80
2018-02-04T02:26:07.326Z,56.30
2018-02-04T02:28:35.264Z,56.20
2018-02-04T02:31:04.542Z,56.50
2018-02-04T02:33:32.417Z,56.50
2018-02-04T02:36:00.980Z,56.00
2018-02-04T02:38:28.972Z,56.00
2018-02-04T02:40:56.667Z,55.10
2018-02-04T02:43:24.410Z,54.80
2018-02-04T02:45:52.899Z,54.80
2018-02-04T02:48:21.271Z,54.80
2018-02-04T02:50:49.786Z,54.70
2018-02-04T02:53:17.525Z,54.70
2018-02-04T02:55:46.030Z,54.40
2018-02-04T02:58:13.754Z,54.30
2018-02-04T03:00:42.248Z,54.10
2018-02-04T03:03:10.185Z,54.10
2018-02-04T03:05:38.765Z,54.70
2018-02-04T03:08:07.455Z,54.50
2018-02-04T03:10:35.939Z,54.60
2018-02-04T03:13:05.289Z,54.70
2018-02-04T03:15:33.878Z,54.70
2018-02-04T03:18:01.920Z,54.10
2018-02-04T03:20:30.384Z,54.30
2018-02-04T03:22:58.209Z,54.10
2018-02-04T03:25:25.971Z,54.30
2018-02-04T03:27:55.120Z,54.50
2018-02-04T03:30:23.753Z,55.00
2018-02-04T03:32:51.757Z,55.00
2018-02-04T03:35:20.157Z,55.60
2018-02-04T03:37:47.899Z,56.60
2018-02-04T03:40:15.908Z,56.00
2018-02-04T03:42:43.726Z,56.10
2018-02-04T03:45:12.858Z,56.40
2018-02-04T03:47:41.450Z,56.70
2018-02-04T03:50:09.237Z,56.70
2018-02-04T03:52:37.769Z,57.00
2018-02-04T03:55:06.712Z,57.40
2018-02-04T03:57:34.468Z,57.30
2018-02-04T04:00:02.338Z,57.20
2018-02-04T04:02:30.693Z,57.40
2018-02-04T04:04:58.507Z,57.20
2018-02-04T04:07:26.301Z,57.70
2018-02-04T04:09:54.964Z,57.70
2018-02-04T04:12:23.284Z,57.80
2018-02-04T04:14:51.561Z,58.30
2018-02-04T04:17:20.067Z,58.20
2018-02-04T04:19:47.778Z,58.20
2018-02-04T04:22:15.539Z,58.30
2018-02-04T04:24:43.541Z,58.30
2018-02-04T04:27:11.277Z,58.70
2018-02-04T04:29:39.712Z,58.90
2018-02-04T04:32:07.371Z,59.00
2018-02-04T04:34:35.913Z,59.60
2018-02-04T04:37:03.608Z,59.50
2018-02-04T04:39:31.381Z,59.70
2018-02-04T04:44:40.768Z,59.90
2018-02-04T04:47:08.766Z,60.20
2018-02-04T04:49:37.989Z,60.20
2018-02-04T04:52:05.869Z,60.20
2018-02-04T04:54:34.448Z,60.20
2018-02-04T04:57:02.942Z,60.60
2018-02-04T04:59:30.850Z,60.60
2018-02-04T05:01:59.761Z,60.60
2018-02-04T05:04:27.503Z,60.90
2018-02-04T05:06:55.356Z,60.90
2018-02-04T05:09:24.221Z,61.20
2018-02-04T05:11:52.327Z,61.10
2018-02-04T05:14:20.225Z,61.00
2018-02-04T05:16:48.089Z,61.20
2018-02-04T05:19:15.851Z,61.20
2018-02-04T05:21:43.630Z,61.50
2018-02-04T05:24:11.433Z,61.40
2018-02-04T05:26:39.987Z,61.30
2018-02-04T05:29:09.387Z,61.50
2018-02-04T05:31:38.176Z,61.30
2018-02-04T05:34:06.562Z,61.20
2018-02-04T05:36:34.360Z,61.30
2018-02-04T05:39:02.256Z,61.80
2018-02-04T05:41:30.083Z,62.00
2018-02-04T05:43:57.888Z,61.10
2018-02-04T05:46:25.757Z,61.10
2018-02-04T05:48:53.460Z,61.30
2018-02-04T05:51:22.046Z,61.50
2018-02-04T05:53:50.692Z,61.50
2018-02-04T05:56:19.101Z,61.50
2018-02-04T05:58:47.451Z,61.40
2018-02-04T06:01:15.199Z,61.80
2018-02-04T06:03:43.027Z,62.00
2018-02-04T06:06:11.703Z,62.40
2018-02-04T06:08:40.179Z,62.50
2018-02-04T06:11:08.834Z,62.70
2018-02-04T06:13:37.285Z,62.60
2018-02-04T06:16:05.293Z,62.70
2018-02-04T06:18:34.018Z,62.60
2018-02-04T06:21:02.056Z,62.60
2018-02-04T06:23:31.337Z,62.40
2018-02-04T06:26:00.790Z,62.60
2018-02-04T06:28:28.541Z,62.50
2018-02-04T06:30:57.311Z,62.30
2018-02-04T06:33:25.156Z,62.40
2018-02-04T06:35:53.927Z,63.50
2018-02-04T06:38:22.429Z,63.10
2018-02-04T06:40:50.916Z,63.30
2018-02-04T06:43:18.786Z,63.20
2018-02-04T06:45:47.468Z,63.20
2018-02-04T06:48:16.149Z,63.50
2018-02-04T06:50:45.575Z,63.20
2018-02-04T06:53:14.037Z,63.50
2018-02-04T06:55:42.820Z,63.50
2018-02-04T06:58:11.952Z,63.50
2018-02-04T07:00:39.753Z,63.50
2018-02-04T07:03:07.819Z,63.20
2018-02-04T07:05:36.559Z,63.20
2018-02-04T07:08:04.496Z,63.20
2018-02-04T07:10:33.819Z,62.70
2018-02-04T07:13:02.308Z,62.70
2018-02-04T07:15:30.950Z,62.50
2018-02-04T07:17:58.638Z,62.50
2018-02-04T07:20:27.035Z,62.40
2018-02-04T07:22:55.240Z,62.10
2018-02-04T07:25:25.109Z,62.10
2018-02-04T07:27:54.391Z,61.90
2018-02-04T07:30:23.553Z,61.50
2018-02-04T07:32:51.886Z,61.60
2018-02-04T07:35:20.626Z,61.60
2018-02-04T07:37:48.343Z,61.60
2018-02-04T07:40:17.286Z,61.10
2018-02-04T07:42:45.573Z,61.80
2018-02-04T07:45:14.917Z,61.40
2018-02-04T07:47:42.749Z,61.40
2018-02-04T07:50:11.360Z,61.70
2018-02-04T07:52:39.746Z,61.70
2018-02-04T07:55:08.317Z,61.60
2018-02-04T07:57:36.849Z,62.00
2018-02-04T08:00:04.813Z,62.10
2018-02-04T08:02:33.071Z,62.20
2018-02-04T08:05:00.853Z,62.20
2018-02-04T08:07:29.689Z,62.20
2018-02-04T08:09:58.444Z,62.10
2018-02-04T08:12:26.262Z,62.10
2018-02-04T08:14:54.281Z,62.00
2018-02-04T08:17:22.533Z,61.80
2018-02-04T08:19:50.301Z,61.50
2018-02-04T08:22:18.139Z,61.50
2018-02-04T08:24:47.269Z,61.40
2018-02-04T08:27:15.856Z,61.20
2018-02-04T08:29:43.726Z,60.70
2018-02-04T08:32:12.314Z,60.80
2018-02-04T08:34:40.842Z,60.30
2018-02-04T08:37:09.395Z,60.20
2018-02-04T08:39:37.726Z,59.80
2018-02-04T08:42:08.653Z,59.50
2018-02-04T08:44:36.428Z,59.50
2018-02-04T08:47:04.150Z,59.20
2018-02-04T08:49:32.059Z,59.30
2018-02-04T08:52:00.804Z,59.00
2018-02-04T08:54:30.293Z,58.90
2018-02-04T08:56:58.429Z,58.90
2018-02-04T08:59:26.794Z,58.60
2018-02-04T09:01:54.577Z,58.50
2018-02-04T09:04:22.803Z,58.40
2018-02-04T09:06:50.673Z,58.20
2018-02-04T09:09:18.469Z,58.10
2018-02-04T09:11:46.440Z,57.60
2018-02-04T09:14:14.300Z,57.60
2018-02-04T09:16:42.173Z,57.80
2018-02-04T09:19:09.969Z,57.20
2018-02-04T09:21:38.463Z,56.90
2018-02-04T09:24:07.565Z,56.40
2018-02-04T09:26:35.844Z,56.40
2018-02-04T09:29:03.602Z,56.00
2018-02-04T09:31:32.973Z,55.90
2018-02-04T09:34:03.135Z,55.50
2018-02-04T09:36:32.582Z,55.40
2018-02-04T09:39:01.173Z,54.70
2018-02-04T09:41:29.851Z,54.60
2018-02-04T09:43:59.064Z,54.60
2018-02-04T09:46:26.915Z,54.60
2018-02-04T09:48:54.628Z,54.40
2018-02-04T09:51:22.669Z,54.30
2018-02-04T09:53:52.081Z,53.60
2018-02-04T09:56:20.208Z,53.60
2018-02-04T09:58:48.745Z,53.90
2018-02-04T10:01:16.505Z,53.40
2018-02-04T10:03:46.215Z,53.40
2018-02-04T10:06:15.460Z,53.20
2018-02-04T10:08:43.593Z,53.20
2018-02-04T10:11:12.340Z,52.60
2018-02-04T10:13:40.712Z,52.40
2018-02-04T10:16:10.019Z,52.70
2018-02-04T10:18:40.523Z,52.90
2018-02-04T10:21:08.396Z,52.80
2018-02-04T10:23:39.062Z,52.40
2018-02-04T10:26:06.987Z,52.60
2018-02-04T10:28:35.880Z,52.40
2018-02-04T10:31:03.984Z,52.30
2018-02-04T10:33:31.810Z,51.70
2018-02-04T10:38:33.699Z,50.80
2018-02-04T10:41:02.669Z,50.30
2018-02-04T10:43:30.971Z,50.20
2018-02-04T10:46:00.666Z,50.20
2018-02-04T10:48:28.436Z,50.10
2018-02-04T10:51:03.828Z,50.60
2018-02-04T10:53:33.339Z,50.10
2018-02-04T10:56:01.064Z,50.10
2018-02-04T10:58:30.406Z,49.40
2018-02-04T11:00:58.960Z,49.50
2018-02-04T11:03:28.036Z,49.70
2018-02-04T11:05:55.808Z,49.90
2018-02-04T11:08:23.845Z,50.10
2018-02-04T11:10:52.231Z,50.20
2018-02-04T11:13:21.218Z,51.20
2018-02-04T11:15:49.270Z,51.10
2018-02-04T11:18:19.010Z,50.90
2018-02-04T11:20:46.873Z,50.60
2018-02-04T11:23:15.501Z,51.50
2018-02-04T11:25:44.759Z,50.60
2018-02-04T11:28:12.506Z,50.50
2018-02-04T11:30:40.272Z,50.70
2018-02-04T11:33:08.938Z,51.10
2018-02-04T11:35:36.926Z,51.10
2018-02-04T11:38:04.924Z,51.40
2018-02-04T11:40:33.377Z,50.80
2018-02-04T11:43:01.407Z,50.80
2018-02-04T11:45:29.344Z,50.40
2018-02-04T11:47:57.934Z,49.90
2018-02-04T11:50:26.300Z,50.20
2018-02-04T11:52:54.805Z,50.50
2018-02-04T11:55:22.633Z,51.00
2018-02-04T11:57:50.516Z,50.60
2018-02-04T12:00:18.245Z,49.50
2018-02-04T12:02:46.437Z,48.80
2018-02-04T12:05:15.562Z,48.50
2018-02-04T12:07:43.352Z,48.50
2018-02-04T12:10:11.305Z,49.60
2018-02-04T12:12:40.375Z,50.00
2018-02-04T12:15:09.317Z,50.10
2018-02-04T12:17:37.112Z,49.40
2018-02-04T12:20:04.965Z,48.20
2018-02-04T12:22:33.763Z,47.40
2018-02-04T12:25:02.273Z,47.40
2018-02-04T12:27:31.002Z,46.80
2018-02-04T12:29:58.794Z,46.40
2018-02-04T12:32:26.906Z,44.80
2018-02-04T12:34:55.949Z,43.80
2018-02-04T12:37:24.681Z,43.80
2018-02-04T12:39:52.496Z,42.90
2018-02-04T12:42:20.726Z,44.20
2018-02-04T12:44:49.858Z,46.10
2018-02-04T12:47:17.637Z,46.10
2018-02-04T12:49:45.284Z,47.80
2018-02-04T12:52:13.155Z,49.30
2018-02-04T12:54:41.154Z,50.30
2018-02-04T12:57:10.556Z,51.40
2018-02-04T12:59:39.043Z,51.50
2018-02-04T13:02:08.105Z,51.90
2018-02-04T13:04:36.380Z,51.90
2018-02-04T13:07:04.461Z,52.40
2018-02-04T13:09:32.313Z,53.60
2018-02-04T13:12:00.211Z,54.00
2018-02-04T13:14:29.649Z,54.10
2018-02-04T13:16:58.395Z,54.50
2018-02-04T13:19:27.324Z,54.60
2018-02-04T13:21:55.287Z,54.60
2018-02-04T13:24:23.117Z,54.70
2018-02-04T13:26:51.792Z,54.70
2018-02-04T13:29:20.238Z,54.20
2018-02-04T13:31:48.019Z,54.20
2018-02-04T13:34:15.757Z,54.60
2018-02-04T13:36:43.562Z,54.60
2018-02-04T13:39:12.232Z,54.70
2018-02-04T13:41:40.405Z,54.70
2018-02-04T13:44:08.396Z,55.10
2018-02-04T13:46:36.245Z,55.10
2018-02-04T13:49:04.925Z,56.00
2018-02-04T13:51:32.921Z,56.00
2018-02-04T13:54:01.047Z,56.70
2018-02-04T13:56:29.434Z,56.60
2018-02-04T13:58:57.212Z,57.00
2018-02-04T14:01:25.848Z,57.30
2018-02-04T14:03:54.513Z,57.40
2018-02-04T14:06:23.102Z,57.70
2018-02-04T14:08:50.862Z,57.70
2018-02-04T14:11:18.739Z,58.10
2018-02-04T14:13:46.436Z,58.20
2018-02-04T14:16:14.308Z,58.70
2018-02-04T14:18:42.026Z,58.50
2018-02-04T14:21:10.660Z,58.70
2018-02-04T14:23:38.744Z,58.50
2018-02-04T14:26:06.596Z,58.80
2018-02-04T14:28:35.280Z,59.20
2018-02-04T14:31:03.121Z,59.70
2018-02-04T14:33:31.810Z,61.10
2018-02-04T14:35:59.854Z,60.50
2018-02-04T14:38:28.734Z,61.50
2018-02-04T14:40:57.394Z,60.80
2018-02-04T14:43:26.072Z,61.30
2018-02-04T14:45:55.291Z,61.50
2018-02-04T14:48:24.152Z,61.40
2018-02-04T14:50:52.064Z,62.00
2018-02-04T14:53:20.194Z,61.50
2018-02-04T14:55:48.050Z,61.50
2018-02-04T14:58:16.925Z,62.00
2018-02-04T15:00:45.213Z,62.10
2018-02-04T15:03:13.186Z,61.90
2018-02-04T15:05:41.026Z,62.30
2018-02-04T15:08:09.840Z,62.80
2018-02-04T15:10:38.442Z,63.50
2018-02-04T15:13:06.384Z,64.20
2018-02-04T15:15:34.151Z,64.70
2018-02-04T15:18:03.346Z,65.20
2018-02-04T15:20:31.953Z,65.40
2018-02-04T15:22:59.652Z,65.70
2018-02-04T15:25:27.431Z,65.90
2018-02-04T15:27:55.342Z,66.70
2018-02-04T15:30:24.213Z,67.30
2018-02-04T15:32:52.374Z,67.30
2018-02-04T15:37:48.546Z,66.50
2018-02-04T15:40:17.033Z,67.30
2018-02-04T15:42:46.357Z,67.20
2018-02-04T15:45:14.484Z,67.10
2018-02-04T15:47:43.881Z,67.70
2018-02-04T15:50:12.377Z,67.70
2018-02-04T15:52:41.901Z,67.80
2018-02-04T15:55:10.038Z,67.80
2018-02-04T15:57:37.828Z,68.00
2018-02-04T16:00:05.652Z,68.40
2018-02-04T16:02:33.529Z,69.10
2018-02-04T16:05:01.433Z,69.30
2018-02-04T16:07:29.311Z,69.50
2018-02-04T16:09:58.171Z,69.50
2018-02-04T16:12:26.734Z,69.90
2018-02-04T16:14:54.452Z,69.90
2018-02-04T16:17:22.268Z,70.10
2018-02-04T16:19:50.851Z,70.00
2018-02-04T16:22:18.791Z,69.50
2018-02-04T16:24:47.520Z,69.50
2018-02-04T16:27:15.367Z,69.60
2018-02-04T16:29:43.475Z,69.20
2018-02-04T16:32:11.570Z,69.20
2018-02-04T16:34:40.115Z,69.50
2018-02-04T16:37:08.706Z,69.30
2018-02-04T16:39:37.321Z,69.30
2018-02-04T16:42:05.532Z,69.30
2018-02-04T16:44:33.512Z,69.20
2018-02-04T16:47:03.009Z,69.70
2018-02-04T16:49:30.977Z,69.70
2018-02-04T16:52:00.506Z,69.70
2018-02-04T16:54:28.482Z,69.90
2018-02-04T16:56:57.965Z,70.20
2018-02-04T16:59:26.598Z,70.00
2018-02-04T17:01:54.923Z,70.00
2018-02-04T17:04:22.784Z,70.30
2018-02-04T17:06:51.246Z,70.00
2018-02-04T17:09:19.018Z,69.60
2018-02-04T17:11:47.517Z,69.90
2018-02-04T17:14:16.290Z,69.50
2018-02-04T17:16:44.247Z,69.90
2018-02-04T17:19:12.328Z,70.20
2018-02-04T17:21:40.293Z,70.30
2018-02-04T17:24:08.157Z,69.90
2018-02-04T17:26:37.178Z,70.00
2018-02-04T17:29:06.379Z,70.20
2018-02-04T17:31:35.341Z,70.20
2018-02-04T17:34:08.773Z,70.60
2018-02-04T17:36:37.384Z,70.00
2018-02-04T17:39:05.426Z,70.00
2018-02-04T17:41:35.988Z,70.30
2018-02-04T17:44:04.498Z,70.30
2018-02-04T17:46:32.298Z,70.10
2018-02-04T17:49:00.691Z,70.20
2018-02-04T17:51:30.010Z,70.20
2018-02-04T17:53:59.144Z,70.20
2018-02-04T17:56:27.104Z,69.90
2018-02-04T17:58:56.269Z,69.70
2018-02-04T18:01:24.906Z,69.90
2018-02-04T18:03:52.796Z,69.90
2018-02-04T18:06:22.266Z,70.10
2018-02-04T18:08:50.324Z,70.10
2018-02-04T18:11:18.906Z,70.20
2018-02-04T18:13:46.773Z,70.20
2018-02-04T18:16:14.742Z,70.40
2018-02-04T18:18:43.552Z,70.30
2018-02-04T18:21:12.230Z,70.30
2018-02-04T18:23:41.740Z,70.40
2018-02-04T18:26:10.305Z,70.10
2018-02-04T18:28:38.281Z,70.10
2018-02-04T18:31:06.944Z,70.40
2018-02-04T18:33:34.923Z,70.40
2018-02-04T18:36:03.849Z,70.70
2018-02-04T18:38:32.195Z,71.10
2018-02-04T18:40:59.916Z,71.00
2018-02-04T18:43:27.923Z,70.90
2018-02-04T18:45:55.867Z,71.10
2018-02-04T18:48:24.470Z,71.00
2018-02-04T18:50:53.093Z,71.10
2018-02-04T18:53:21.030Z,71.20
2018-02-04T18:55:49.912Z,71.50
2018-02-04T18:58:18.597Z,71.90
2018-02-04T19:00:46.451Z,71.30
2018-02-04T19:03:15.049Z,71.40
2018-02-04T19:05:43.869Z,71.60
2018-02-04T19:08:12.296Z,71.70
2018-02-04T19:10:40.382Z,71.80
2018-02-04T19:13:08.555Z,71.80
2018-02-04T19:15:36.252Z,71.20
2018-02-04T19:18:04.922Z,70.90
2018-02-04T19:20:32.697Z,70.80
2018-02-04T19:23:00.533Z,70.90
2018-02-04T19:25:29.270Z,70.80
2018-02-04T19:27:58.541Z,71.30
2018-02-04T19:30:26.510Z,71.20
2018-02-04T19:32:55.180Z,70.30
2018-02-04T19:35:23.679Z,70.50
2018-02-04T19:37:52.650Z,70.20
2018-02-04T19:40:21.357Z,70.20
2018-02-04T19:42:49.043Z,70.20
2018-02-04T19:45:18.444Z,70.10
2018-02-04T19:47:47.073Z,70.10
2018-02-04T19:50:15.579Z,70.10
2018-02-04T19:52:44.197Z,69.90
2018-02-04T19:55:13.341Z,70.10
2018-02-04T19:57:41.031Z,70.10
2018-02-04T20:00:09.780Z,70.30
2018-02-04T20:02:38.228Z,70.20
2018-02-04T20:05:06.784Z,70.50
2018-02-04T20:07:35.741Z,70.40
2018-02-04T20:10:03.607Z,70.40
2018-02-04T20:12:31.472Z,70.10
2018-02-04T20:14:59.331Z,70.30
2018-02-04T20:17:27.205Z,70.50
2018-02-04T20:19:54.948Z,70.30
2018-02-04T20:22:22.743Z,70.40
2018-02-04T20:24:50.875Z,70.40
2018-02-04T20:27:18.612Z,70.60
2018-02-04T20:29:46.605Z,70.60
2018-02-04T20:32:26.741Z,70.40
2018-02-04T20:34:55.161Z,71.00
2018-02-04T20:37:23.028Z,71.00
2018-02-04T20:39:51.431Z,70.30
2018-02-04T20:42:19.187Z,70.40
2018-02-04T20:44:47.951Z,70.10
2018-02-04T20:47:16.644Z,70.00
2018-02-04T20:49:45.220Z,70.00
2018-02-04T20:52:13.807Z,70.00
2018-02-04T20:54:41.616Z,69.90
2018-02-04T20:57:10.394Z,70.20
2018-02-04T20:59:38.888Z,70.20
2018-02-04T21:02:07.489Z,70.20
2018-02-04T21:04:35.403Z,70.30
2018-02-04T21:07:04.003Z,70.60
2018-02-04T21:09:32.671Z,70.70
2018-02-04T21:12:02.262Z,70.70
2018-02-04T21:14:30.123Z,70.80
2018-02-04T21:16:57.995Z,71.00
2018-02-04T21:19:26.998Z,71.20
2018-02-04T21:21:54.860Z,71.20
2018-02-04T21:24:23.540Z,72.10
2018-02-04T21:26:51.609Z,71.30
2018-02-04T21:29:19.457Z,71.40
2018-02-04T21:31:47.522Z,71.50
2018-02-04T21:34:15.237Z,71.50
2018-02-04T21:36:43.993Z,71.60
2018-02-04T21:39:11.969Z,71.90
2018-02-04T21:41:39.829Z,71.80
2018-02-04T21:44:08.427Z,71.90
2018-02-04T21:46:36.276Z,71.60
2018-02-04T21:49:04.110Z,71.40
2018-02-04T21:51:32.719Z,71.30
2018-02-04T21:54:00.515Z,71.30
2018-02-04T21:56:28.310Z,71.50
2018-02-04T21:58:56.004Z,71.50
2018-02-04T22:01:24.469Z,71.90
2018-02-04T22:03:52.326Z,71.60
2018-02-04T22:06:20.399Z,71.20
2018-02-04T22:08:49.084Z,71.40
2018-02-04T22:11:16.841Z,71.60
2018-02-04T22:13:44.615Z,71.60
2018-02-04T22:16:13.157Z,71.70
2018-02-04T22:18:41.807Z,71.90
2018-02-04T22:21:10.595Z,71.90
2018-02-04T22:23:38.339Z,72.10
2018-02-04T22:26:06.842Z,71.30
2018-02-04T22:28:34.652Z,71.30
2018-02-04T22:31:03.141Z,71.00
2018-02-04T22:33:31.738Z,71.00
2018-02-04T22:35:59.504Z,71.00
2018-02-04T22:38:27.396Z,70.80
2018-02-04T22:40:55.165Z,70.80
2018-02-04T22:43:22.909Z,71.00
2018-02-04T22:45:50.696Z,70.80
2018-02-04T22:48:18.470Z,70.60
2018-02-04T22:50:47.378Z,70.70
2018-02-04T22:53:16.072Z,70.60
2018-02-04T22:55:45.387Z,70.60
2018-02-04T22:58:13.190Z,70.60
2018-02-04T23:00:41.032Z,70.80
2018-02-04T23:03:08.762Z,70.20
2018-02-04T23:05:37.507Z,70.50
2018-02-04T23:08:06.087Z,70.30
2018-02-04T23:10:34.875Z,70.50
2018-02-04T23:13:02.899Z,70.50
2018-02-04T23:15:30.812Z,70.50
2018-02-04T23:17:58.620Z,70.70
2018-02-04T23:20:28.520Z,71.40
2018-02-04T23:22:56.391Z,71.30
2018-02-04T23:25:24.167Z,72.00
2018-02-04T23:27:51.938Z,72.00
2018-02-04T23:30:19.767Z,72.40
2018-02-04T23:32:48.950Z,72.80
2018-02-04T23:35:17.632Z,73.00
2018-02-04T23:37:45.352Z,73.40
2018-02-04T23:40:14.168Z,73.40
2018-02-04T23:42:42.680Z,73.40
2018-02-04T23:45:11.005Z,73.40
2018-02-04T23:47:38.856Z,73.60
2018-02-04T23:50:07.675Z,73.50
2018-02-04T23:52:36.345Z,73.60
2018-02-04T23:55:04.170Z,74.00
2018-02-04T23:57:32.596Z,73.80
